createdAt,value
2023-02-17T00:00:58.256Z,2.29
2023-02-17T00:03:25.510Z,2.37
2023-02-17T00:05:53.140Z,2.29
2023-02-17T00:08:20.136Z,2.04
2023-02-17T00:10:58.466Z,2.08
2023-02-17T00:13:25.798Z,2.05
2023-02-17T00:15:52.980Z,1.81
2023-02-17T00:18:19.920Z,1.82
2023-02-17T00:20:46.847Z,1.91
2023-02-17T00:23:13.776Z,1.92
2023-02-17T00:25:41.101Z,1.84
2023-02-17T00:28:08.051Z,1.84
2023-02-17T00:30:34.971Z,1.96
2023-02-17T00:33:01.854Z,2.09
2023-02-17T00:35:28.720Z,2.17
2023-02-17T00:37:55.584Z,2.14
2023-02-17T00:40:22.498Z,2.17
2023-02-17T00:42:49.280Z,2.23
2023-02-17T00:45:16.416Z,2.19
2023-02-17T00:47:43.294Z,2.07
2023-02-17T00:50:10.384Z,2.10
2023-02-17T00:52:37.221Z,2.10
2023-02-17T00:55:04.320Z,2.01
2023-02-17T00:57:32.557Z,1.90
2023-02-17T00:59:59.537Z,2.04
2023-02-17T01:02:26.696Z,2.08
2023-02-17T01:04:53.902Z,2.12
2023-02-17T01:07:20.739Z,2.22
2023-02-17T01:09:47.609Z,2.35
2023-02-17T01:12:14.633Z,2.50
2023-02-17T01:14:41.521Z,2.52
2023-02-17T01:17:08.397Z,2.63
2023-02-17T01:19:35.297Z,2.70
2023-02-17T01:22:02.390Z,2.84
2023-02-17T01:24:29.357Z,2.97
2023-02-17T01:26:56.314Z,3.07
2023-02-17T01:29:23.206Z,3.16
2023-02-17T01:31:50.217Z,3.22
2023-02-17T01:34:17.216Z,3.34
2023-02-17T01:36:44.112Z,3.47
2023-02-17T01:39:14.233Z,3.48
2023-02-17T01:41:41.278Z,3.49
2023-02-17T01:44:23.179Z,3.57
2023-02-17T01:46:55.193Z,3.66
2023-02-17T01:49:24.908Z,3.69
2023-02-17T01:51:57.364Z,3.78
2023-02-17T01:54:59.118Z,3.82
2023-02-17T01:57:32.917Z,3.71
2023-02-17T02:00:00.152Z,3.72
2023-02-17T02:02:30.292Z,3.74
2023-02-17T02:04:57.554Z,3.77
2023-02-17T02:07:36.215Z,3.72
2023-02-17T02:10:03.807Z,3.54
2023-02-17T02:12:36.631Z,3.55
2023-02-17T02:15:17.655Z,3.53
2023-02-17T02:18:21.714Z,3.55
2023-02-17T02:21:00.515Z,3.43
2023-02-17T02:23:52.261Z,3.46
2023-02-17T02:26:21.891Z,3.53
2023-02-17T02:29:03.306Z,3.48
2023-02-17T02:31:56.713Z,3.50
2023-02-17T02:34:37.588Z,3.49
2023-02-17T02:37:16.972Z,3.49
2023-02-17T02:39:52.473Z,3.39
2023-02-17T02:42:22.939Z,3.42
2023-02-17T02:44:50.811Z,3.45
2023-02-17T02:47:42.554Z,3.51
2023-02-17T02:50:17.019Z,3.43
2023-02-17T02:53:08.488Z,3.38
2023-02-17T02:55:51.939Z,3.32
2023-02-17T02:58:37.520Z,3.28
2023-02-17T03:01:14.287Z,3.07
2023-02-17T03:03:58.842Z,2.99
2023-02-17T03:06:53.315Z,2.97
2023-02-17T03:09:24.846Z,2.87
2023-02-17T03:11:52.599Z,2.77
2023-02-17T03:27:46.786Z,1.57
2023-02-17T03:30:15.151Z,1.46
2023-02-17T03:32:42.784Z,1.55
2023-02-17T03:35:09.644Z,1.63
2023-02-17T03:37:36.532Z,1.75
2023-02-17T03:40:04.005Z,1.71
2023-02-17T03:42:30.856Z,1.74
2023-02-17T03:44:57.786Z,1.80
2023-02-17T03:47:24.871Z,1.74
2023-02-17T03:49:52.413Z,1.67
2023-02-17T03:52:19.297Z,1.75
2023-02-17T03:54:46.284Z,1.74
2023-02-17T03:57:13.062Z,1.66
2023-02-17T03:59:39.950Z,1.60
2023-02-17T04:02:06.792Z,1.58
2023-02-17T04:04:33.680Z,1.60
2023-02-17T04:07:00.495Z,1.57
2023-02-17T04:09:27.424Z,1.50
2023-02-17T04:11:54.243Z,1.58
2023-02-17T04:14:21.289Z,1.65
2023-02-17T04:16:48.238Z,1.36
2023-02-17T04:19:15.050Z,1.50
2023-02-17T04:21:41.983Z,1.52
2023-02-17T04:24:08.881Z,1.37
2023-02-17T04:26:35.796Z,1.35
2023-02-17T04:29:04.552Z,1.42
2023-02-17T04:31:31.590Z,1.50
2023-02-17T04:33:58.567Z,1.41
2023-02-17T04:36:25.449Z,1.38
2023-02-17T04:38:52.405Z,1.46
2023-02-17T04:41:19.245Z,1.45
2023-02-17T04:43:46.094Z,1.31
2023-02-17T04:46:13.072Z,1.43
2023-02-17T04:48:40.061Z,1.54
2023-02-17T04:51:06.965Z,1.38
2023-02-17T04:53:33.881Z,1.36
2023-02-17T04:56:00.850Z,1.54
2023-02-17T04:58:27.880Z,1.69
2023-02-17T05:00:54.806Z,1.56
2023-02-17T05:03:21.748Z,1.50
2023-02-17T05:05:49.688Z,1.56
2023-02-17T05:08:16.468Z,1.70
2023-02-17T05:10:43.359Z,1.47
2023-02-17T05:13:10.149Z,1.61
2023-02-17T05:15:37.033Z,1.86
2023-02-17T05:18:05.038Z,1.93
2023-02-17T05:20:31.927Z,1.86
2023-02-17T05:22:58.810Z,2.08
2023-02-17T05:25:25.726Z,2.38
2023-02-17T05:27:52.821Z,2.33
2023-02-17T05:30:20.059Z,2.14
2023-02-17T05:32:47.067Z,2.54
2023-02-17T05:35:13.892Z,2.64
2023-02-17T05:37:40.833Z,2.76
2023-02-17T05:40:08.924Z,2.71
2023-02-17T05:42:35.718Z,3.32
2023-02-17T05:45:02.603Z,3.97
2023-02-17T05:47:29.522Z,3.88
2023-02-17T05:49:56.442Z,3.60
2023-02-17T05:52:23.283Z,4.36
2023-02-17T05:54:50.212Z,5.41
2023-02-17T05:57:17.074Z,6.32
2023-02-17T05:59:44.099Z,7.11
2023-02-17T06:02:11.025Z,7.35
2023-02-17T06:04:38.368Z,7.15
2023-02-17T06:07:05.256Z,6.25
2023-02-17T06:09:32.136Z,7.06
2023-02-17T06:11:59.021Z,7.71
2023-02-17T06:14:25.888Z,8.23
2023-02-17T06:16:53.913Z,8.30
2023-02-17T06:19:20.803Z,8.51
2023-02-17T06:21:47.670Z,10.01
2023-02-17T06:24:14.538Z,10.61
2023-02-17T06:26:41.492Z,9.82
2023-02-17T06:29:08.306Z,7.80
2023-02-17T06:31:35.232Z,7.48
2023-02-17T06:34:02.102Z,8.75
2023-02-17T06:36:28.943Z,9.14
2023-02-17T06:38:55.807Z,9.87
2023-02-17T06:41:22.544Z,9.14
2023-02-17T06:43:49.492Z,8.97
2023-02-17T06:46:16.453Z,10.02
2023-02-17T06:48:46.376Z,11.08
2023-02-17T06:51:13.284Z,11.19
2023-02-17T06:53:40.164Z,8.61
2023-02-17T06:56:07.558Z,8.10
2023-02-17T06:58:36.688Z,9.17
2023-02-17T07:01:05.149Z,10.76
2023-02-17T07:03:32.650Z,12.74
2023-02-17T07:06:00.096Z,12.69
2023-02-17T07:08:27.009Z,13.79
2023-02-17T07:10:53.875Z,15.28
2023-02-17T07:13:20.842Z,14.45
2023-02-17T07:15:47.802Z,15.46
2023-02-17T07:18:14.550Z,15.23
2023-02-17T07:20:41.575Z,15.15
2023-02-17T07:23:08.587Z,13.87
2023-02-17T07:25:35.521Z,13.44
2023-02-17T07:28:02.643Z,12.79
2023-02-17T07:30:29.790Z,14.05
2023-02-17T07:32:56.719Z,13.51
2023-02-17T07:35:23.767Z,13.27
2023-02-17T07:37:51.746Z,13.12
2023-02-17T07:40:18.988Z,12.86
2023-02-17T07:42:45.870Z,12.93
2023-02-17T07:45:13.751Z,13.40
2023-02-17T07:47:40.751Z,13.03
2023-02-17T07:50:08.818Z,14.06
2023-02-17T07:52:35.730Z,14.28
2023-02-17T07:55:02.820Z,15.34
2023-02-17T07:57:30.581Z,15.26
2023-02-17T07:59:57.478Z,16.73
2023-02-17T08:02:24.448Z,17.66
2023-02-17T08:04:52.734Z,17.39
2023-02-17T08:07:19.778Z,14.61
2023-02-17T08:10:05.345Z,14.82
2023-02-17T08:12:50.975Z,15.41
2023-02-17T08:15:17.899Z,15.76
2023-02-17T08:17:44.763Z,16.04
2023-02-17T08:30:16.838Z,15.25
2023-02-17T08:32:54.589Z,14.86
2023-02-17T08:35:22.745Z,14.68
2023-02-17T08:37:50.421Z,14.34
2023-02-17T08:40:18.821Z,14.79
2023-02-17T08:42:45.693Z,14.94
2023-02-17T08:45:16.047Z,14.54
2023-02-17T08:47:43.157Z,14.62
2023-02-17T08:50:16.070Z,14.44
2023-02-17T08:52:43.016Z,14.92
2023-02-17T08:55:10.073Z,15.27
2023-02-17T08:57:37.213Z,16.21
2023-02-17T09:00:08.887Z,15.93
2023-02-17T09:02:37.666Z,14.81
2023-02-17T09:05:06.319Z,14.69
2023-02-17T09:07:33.282Z,15.39
2023-02-17T09:10:00.861Z,15.77
2023-02-17T09:12:27.644Z,15.83
2023-02-17T09:14:54.623Z,16.72
2023-02-17T09:17:21.613Z,16.45
2023-02-17T09:19:48.586Z,16.72
2023-02-17T09:22:30.755Z,17.17
2023-02-17T09:24:58.721Z,16.39
2023-02-17T09:27:25.637Z,16.89
2023-02-17T09:29:52.482Z,17.32
2023-02-17T09:32:19.469Z,16.41
2023-02-17T09:34:53.171Z,16.50
2023-02-17T09:37:20.357Z,16.93
2023-02-17T09:39:48.879Z,16.26
2023-02-17T09:42:23.762Z,16.20
2023-02-17T09:45:15.481Z,16.47
2023-02-17T09:47:50.259Z,16.45
2023-02-17T09:50:23.753Z,15.85
2023-02-17T09:53:11.767Z,17.63
2023-02-17T09:55:48.259Z,17.66
2023-02-17T09:58:32.636Z,16.35
2023-02-17T10:01:03.863Z,16.32
2023-02-17T10:03:45.185Z,15.89
2023-02-17T10:06:39.074Z,16.37
2023-02-17T10:09:27.152Z,15.68
2023-02-17T10:12:07.212Z,16.42
2023-02-17T10:14:43.783Z,17.00
2023-02-17T10:17:18.424Z,17.29
2023-02-17T10:20:10.887Z,16.89
2023-02-17T10:22:40.048Z,16.82
2023-02-17T10:25:33.095Z,16.17
2023-02-17T10:28:10.783Z,17.17
2023-02-17T10:30:47.519Z,17.03
2023-02-17T10:33:37.287Z,17.10
2023-02-17T10:36:32.938Z,17.00
2023-02-17T10:39:20.164Z,16.41
2023-02-17T10:41:49.557Z,16.88
2023-02-17T10:44:23.214Z,16.46
2023-02-17T10:46:51.339Z,16.03
2023-02-17T10:49:34.622Z,16.07
2023-02-17T10:52:10.772Z,16.35
2023-02-17T10:54:42.264Z,16.32
2023-02-17T10:57:12.841Z,16.33
2023-02-17T10:59:43.039Z,17.26
2023-02-17T11:02:25.110Z,18.70
2023-02-17T11:04:56.348Z,17.89
2023-02-17T11:07:32.552Z,18.66
2023-02-17T11:10:02.748Z,18.91
2023-02-17T11:12:42.272Z,19.03
2023-02-17T11:15:21.940Z,20.54
2023-02-17T11:17:49.275Z,21.92
2023-02-17T11:20:16.452Z,23.99
2023-02-17T11:22:49.076Z,22.81
2023-02-17T11:25:26.904Z,23.31
2023-02-17T11:27:58.075Z,22.82
2023-02-17T11:30:27.511Z,20.76
2023-02-17T11:32:55.343Z,19.71
2023-02-17T11:35:37.503Z,20.65
2023-02-17T11:38:11.980Z,20.28
2023-02-17T11:40:39.415Z,20.78
2023-02-17T11:43:06.797Z,17.97
2023-02-17T11:45:59.171Z,18.48
2023-02-17T11:48:35.759Z,19.52
2023-02-17T11:51:33.648Z,19.44
2023-02-17T11:54:06.383Z,21.00
2023-02-17T11:56:39.466Z,20.19
2023-02-17T11:59:25.254Z,21.64
2023-02-17T12:02:12.085Z,19.88
2023-02-17T12:04:52.939Z,20.24
2023-02-17T12:07:40.322Z,20.50
2023-02-17T12:10:24.508Z,19.24
2023-02-17T12:13:32.658Z,19.73
2023-02-17T12:16:08.947Z,20.81
2023-02-17T12:18:53.572Z,20.86
2023-02-17T12:21:34.469Z,20.12
2023-02-17T12:24:10.423Z,18.43
2023-02-17T12:26:43.628Z,17.38
2023-02-17T12:29:28.620Z,16.59
2023-02-17T12:32:18.894Z,14.99
2023-02-17T12:35:03.911Z,15.06
2023-02-17T12:37:33.222Z,15.08
2023-02-17T12:40:04.586Z,15.06
2023-02-17T12:42:43.588Z,15.23
2023-02-17T12:45:13.644Z,15.40
2023-02-17T12:48:24.251Z,15.51
2023-02-17T12:50:59.796Z,15.32
2023-02-17T12:53:51.586Z,14.68
2023-02-17T12:56:34.621Z,14.52
2023-02-17T12:59:15.192Z,14.56
2023-02-17T13:01:49.757Z,14.73
2023-02-17T13:04:20.656Z,14.84
2023-02-17T13:06:54.745Z,14.91
2023-02-17T13:09:33.152Z,14.79
2023-02-17T13:12:24.973Z,14.81
2023-02-17T13:14:56.286Z,14.79
2023-02-17T13:17:51.910Z,14.65
2023-02-17T13:20:18.673Z,14.47
2023-02-17T13:22:47.666Z,13.98
2023-02-17T13:25:31.058Z,13.96
2023-02-17T13:28:01.324Z,14.05
2023-02-17T13:30:40.825Z,14.36
2023-02-17T13:33:20.448Z,14.47
2023-02-17T13:35:48.126Z,14.56
2023-02-17T13:38:26.955Z,14.55
2023-02-17T13:41:02.523Z,14.77
2023-02-17T13:43:33.722Z,14.50
2023-02-17T13:46:02.100Z,14.67
2023-02-17T13:48:34.877Z,14.55
2023-02-17T13:51:07.215Z,14.76
2023-02-17T13:53:40.459Z,14.08
2023-02-17T13:56:10.823Z,14.09
2023-02-17T13:58:40.299Z,14.11
2023-02-17T14:01:14.293Z,14.20
2023-02-17T14:03:42.680Z,14.25
2023-02-17T14:06:21.557Z,14.04
2023-02-17T14:08:48.818Z,14.00
2023-02-17T14:11:20.122Z,13.97
2023-02-17T14:13:51.441Z,13.96
2023-02-17T14:16:27.862Z,13.95
2023-02-17T14:19:10.464Z,13.94
2023-02-17T14:21:44.550Z,13.27
2023-02-17T14:24:30.821Z,13.24
2023-02-17T14:27:08.280Z,13.34
2023-02-17T14:29:39.908Z,13.42
2023-02-17T14:32:07.034Z,13.40
2023-02-17T14:34:36.588Z,13.30
2023-02-17T14:37:10.848Z,13.44
2023-02-17T14:39:37.656Z,12.99
2023-02-17T14:42:04.741Z,13.09
2023-02-17T14:44:31.657Z,13.00
2023-02-17T14:46:58.959Z,12.90
2023-02-17T14:49:25.854Z,12.62
2023-02-17T14:51:52.715Z,12.26
2023-02-17T14:54:19.757Z,12.35
2023-02-17T14:57:07.287Z,12.39
2023-02-17T14:59:34.245Z,12.51
2023-02-17T15:02:01.192Z,12.41
2023-02-17T15:04:28.274Z,12.35
2023-02-17T15:06:55.332Z,12.35
2023-02-17T15:09:30.510Z,12.18
2023-02-17T15:11:58.606Z,12.32
2023-02-17T15:29:50.040Z,10.43
2023-02-17T15:32:23.293Z,10.35
2023-02-17T15:34:50.425Z,10.58
2023-02-17T15:37:17.315Z,10.62
2023-02-17T15:39:44.265Z,10.77
2023-02-17T15:42:14.307Z,10.59
2023-02-17T15:44:51.131Z,10.38
2023-02-17T15:47:20.060Z,10.41
2023-02-17T15:49:47.248Z,10.43
2023-02-17T15:52:14.904Z,10.23
2023-02-17T15:54:42.898Z,10.17
2023-02-17T15:57:23.569Z,10.16
2023-02-17T15:59:50.736Z,10.17
2023-02-17T16:02:23.379Z,10.03
2023-02-17T16:04:50.702Z,9.83
2023-02-17T16:07:17.687Z,9.58
2023-02-17T16:09:44.567Z,9.57
2023-02-17T16:12:26.651Z,9.42
2023-02-17T16:14:54.740Z,9.46
2023-02-17T16:17:21.638Z,9.46
2023-02-17T16:19:48.492Z,9.35
2023-02-17T16:22:15.370Z,9.47
2023-02-17T16:24:42.269Z,9.48
2023-02-17T16:27:14.605Z,9.46
2023-02-17T16:29:41.889Z,9.49
2023-02-17T16:32:12.846Z,9.41
2023-02-17T16:34:40.403Z,9.50
2023-02-17T16:37:15.232Z,9.52
2023-02-17T16:39:42.358Z,9.38
2023-02-17T16:42:12.368Z,9.39
2023-02-17T16:44:39.228Z,9.43
2023-02-17T16:47:09.126Z,9.25
2023-02-17T16:49:39.881Z,9.35
2023-02-17T16:52:21.281Z,9.40
2023-02-17T16:54:48.103Z,9.20
2023-02-17T16:57:18.491Z,9.13
2023-02-17T16:59:46.473Z,9.08
2023-02-17T17:02:14.305Z,9.15
2023-02-17T17:04:41.222Z,9.18
2023-02-17T17:07:13.819Z,9.30
2023-02-17T17:09:40.978Z,9.29
2023-02-17T17:12:10.997Z,9.17
2023-02-17T17:14:37.965Z,9.13
2023-02-17T17:17:04.943Z,9.07
2023-02-17T17:19:31.784Z,9.08
2023-02-17T17:21:58.661Z,9.06
2023-02-17T17:24:25.652Z,8.77
2023-02-17T17:26:52.667Z,8.64
2023-02-17T17:29:19.784Z,8.65
2023-02-17T17:31:47.220Z,8.69
2023-02-17T17:34:14.314Z,8.73
2023-02-17T17:36:42.471Z,8.66
2023-02-17T17:39:16.295Z,8.30
2023-02-17T17:41:43.298Z,8.19
2023-02-17T17:44:10.710Z,8.18
2023-02-17T17:46:38.919Z,8.23
2023-02-17T17:49:10.192Z,8.21
2023-02-17T17:51:38.714Z,8.17
2023-02-17T17:54:07.043Z,7.74
2023-02-17T17:56:38.890Z,7.74
2023-02-17T17:59:06.786Z,7.78
2023-02-17T18:01:34.064Z,7.80
2023-02-17T18:04:01.692Z,7.72
2023-02-17T18:06:35.547Z,7.63
2023-02-17T18:09:05.382Z,7.61
2023-02-17T18:11:33.455Z,7.31
2023-02-17T18:14:05.362Z,7.17
2023-02-17T18:16:33.622Z,7.18
2023-02-17T18:19:02.328Z,7.14
2023-02-17T18:21:29.270Z,7.16
2023-02-17T18:23:56.293Z,7.23
2023-02-17T18:26:23.409Z,7.25
2023-02-17T18:28:50.269Z,7.30
2023-02-17T18:31:17.329Z,7.27
2023-02-17T18:33:44.276Z,7.30
2023-02-17T18:36:17.399Z,7.35
2023-02-17T18:38:45.219Z,7.34
2023-02-17T18:41:41.193Z,7.32
2023-02-17T18:44:11.066Z,7.35
2023-02-17T18:46:39.217Z,7.30
2023-02-17T18:49:06.553Z,7.07
2023-02-17T18:51:33.595Z,7.09
2023-02-17T18:54:01.591Z,7.10
2023-02-17T18:56:31.426Z,7.17
2023-02-17T18:58:58.835Z,7.28
2023-02-17T19:01:29.118Z,7.29
2023-02-17T19:03:56.452Z,7.19
2023-02-17T19:06:30.079Z,7.10
2023-02-17T19:08:57.150Z,7.03
2023-02-17T19:11:25.478Z,6.99
2023-02-17T19:13:53.420Z,6.81
2023-02-17T19:16:25.904Z,6.82
2023-02-17T19:18:53.045Z,6.89
2023-02-17T19:21:20.769Z,6.88
2023-02-17T19:23:48.716Z,6.84
2023-02-17T19:26:16.865Z,6.86
2023-02-17T19:28:45.153Z,6.81
2023-02-17T19:31:15.573Z,6.89
2023-02-17T19:33:44.368Z,6.97
2023-02-17T19:36:14.636Z,6.99
2023-02-17T19:38:41.655Z,7.17
2023-02-17T19:41:10.834Z,7.22
2023-02-17T19:43:37.824Z,7.09
2023-02-17T19:46:05.398Z,7.13
2023-02-17T19:48:33.115Z,7.15
2023-02-17T19:51:02.795Z,7.23
2023-02-17T19:53:31.586Z,7.35
2023-02-17T19:56:13.448Z,7.40
2023-02-17T19:58:41.923Z,7.36
2023-02-17T20:01:11.970Z,7.35
2023-02-17T20:03:39.503Z,7.34
2023-02-17T20:06:13.218Z,7.46
2023-02-17T20:08:40.333Z,7.46
2023-02-17T20:11:09.545Z,7.44
2023-02-17T20:13:45.721Z,7.52
2023-02-17T20:16:15.439Z,7.43
2023-02-17T20:18:44.978Z,7.36
2023-02-17T20:21:14.768Z,7.32
2023-02-17T20:23:41.875Z,7.25
2023-02-17T20:26:14.081Z,7.32
2023-02-17T20:28:41.345Z,7.26
2023-02-17T20:31:09.738Z,7.27
2023-02-17T20:33:36.864Z,7.09
2023-02-17T20:36:05.829Z,7.09
2023-02-17T20:38:33.229Z,7.06
2023-02-17T20:41:00.479Z,7.11
2023-02-17T20:43:27.409Z,7.13
2023-02-17T20:45:54.754Z,7.15
2023-02-17T20:48:22.053Z,7.12
2023-02-17T20:50:49.008Z,7.04
2023-02-17T20:53:15.857Z,7.04
2023-02-17T20:55:42.668Z,7.01
2023-02-17T20:58:10.804Z,6.95
2023-02-17T21:00:37.990Z,7.05
2023-02-17T21:03:05.301Z,6.86
2023-02-17T21:05:32.438Z,6.88
2023-02-17T21:07:59.521Z,6.79
2023-02-17T21:10:29.440Z,6.73
2023-02-17T21:12:56.591Z,6.82
2023-02-17T21:15:23.900Z,6.81
2023-02-17T21:17:51.230Z,6.84
2023-02-17T21:20:20.921Z,6.77
2023-02-17T21:22:48.304Z,6.62
2023-02-17T21:25:15.332Z,6.49
2023-02-17T21:27:42.360Z,6.48
2023-02-17T21:30:10.964Z,6.47
2023-02-17T21:32:38.581Z,6.48
2023-02-17T21:35:06.454Z,6.48
2023-02-17T21:37:34.452Z,6.39
2023-02-17T21:40:01.325Z,6.46
2023-02-17T21:42:46.808Z,6.52
2023-02-17T21:45:13.757Z,6.55
2023-02-17T21:47:40.633Z,6.64
2023-02-17T21:50:07.947Z,6.62
2023-02-17T21:52:34.977Z,6.76
2023-02-17T21:55:01.881Z,6.73
2023-02-17T21:57:28.895Z,6.83
2023-02-17T21:59:55.693Z,6.84
2023-02-17T22:02:22.627Z,6.85
2023-02-17T22:04:49.550Z,6.86
2023-02-17T22:07:16.425Z,6.88
2023-02-17T22:09:43.306Z,6.90
2023-02-17T22:12:10.131Z,6.94
2023-02-17T22:14:36.934Z,6.90
2023-02-17T22:17:04.037Z,6.83
2023-02-17T22:19:31.654Z,6.77
2023-02-17T22:21:58.804Z,6.72
2023-02-17T22:24:27.364Z,6.68
2023-02-17T22:26:54.882Z,6.61
2023-02-17T22:29:21.982Z,6.57
2023-02-17T22:31:50.517Z,6.67
2023-02-17T22:34:17.629Z,6.62
2023-02-17T22:36:44.915Z,6.60
2023-02-17T22:39:12.404Z,6.55
2023-02-17T22:41:39.920Z,6.45
2023-02-17T22:44:07.767Z,6.47
2023-02-17T22:46:35.362Z,6.49
2023-02-17T22:49:02.541Z,6.54
2023-02-17T22:51:32.123Z,6.53
2023-02-17T22:54:01.107Z,6.47
2023-02-17T22:56:28.889Z,6.49
2023-02-17T22:58:58.041Z,6.55
2023-02-17T23:01:25.451Z,6.51
2023-02-17T23:03:54.546Z,6.51
2023-02-17T23:06:27.981Z,6.46
2023-02-17T23:08:55.606Z,6.52
2023-02-17T23:11:44.161Z,6.42
2023-02-17T23:14:13.539Z,6.45
2023-02-17T23:16:40.598Z,6.39
2023-02-17T23:19:09.287Z,6.35
2023-02-17T23:21:36.766Z,6.45
2023-02-17T23:24:04.670Z,6.45
2023-02-17T23:26:31.595Z,6.45
2023-02-17T23:28:59.635Z,6.42
2023-02-17T23:31:26.637Z,6.35
2023-02-17T23:33:53.522Z,6.36
2023-02-17T23:36:20.629Z,6.45
2023-02-17T23:38:47.511Z,6.58
2023-02-17T23:41:14.358Z,6.61
2023-02-17T23:43:41.641Z,6.59
2023-02-17T23:46:08.914Z,6.67
2023-02-17T23:48:36.068Z,6.76
2023-02-17T23:51:04.775Z,6.84
2023-02-17T23:53:32.986Z,6.88
2023-02-17T23:56:14.624Z,6.94
2023-02-17T23:58:41.896Z,6.90
